createdAt,value
2022-08-28T00:00:11.255Z,6.43
2022-08-28T00:02:38.031Z,8.18
2022-08-28T00:05:06.096Z,8.88
2022-08-28T00:07:34.649Z,10.05
2022-08-28T00:10:01.224Z,10.15
2022-08-28T00:12:27.733Z,7.97
2022-08-28T00:14:54.226Z,8.50
2022-08-28T00:17:20.758Z,8.65
2022-08-28T00:19:47.461Z,6.78
2022-08-28T00:22:14.070Z,6.68
2022-08-28T00:24:44.534Z,6.57
2022-08-28T00:27:29.655Z,7.78
2022-08-28T00:29:56.192Z,8.65
2022-08-28T00:32:25.843Z,7.05
2022-08-28T00:34:52.424Z,9.02
2022-08-28T00:37:19.032Z,9.10
2022-08-28T00:39:48.928Z,6.68
2022-08-28T00:42:15.364Z,7.18
2022-08-28T00:44:41.859Z,6.38
2022-08-28T00:47:08.632Z,9.45
2022-08-28T00:49:38.164Z,7.82
2022-08-28T00:52:11.944Z,5.97
2022-08-28T00:54:56.886Z,9.10
2022-08-28T00:57:31.604Z,7.68
2022-08-28T00:59:58.257Z,12.73
2022-08-28T01:02:29.297Z,8.00
2022-08-28T01:04:58.159Z,9.93
2022-08-28T01:07:24.768Z,9.80
2022-08-28T01:09:54.081Z,10.40
2022-08-28T01:12:23.342Z,8.73
2022-08-28T01:14:51.044Z,7.82
2022-08-28T01:17:30.729Z,8.88
2022-08-28T01:20:02.892Z,6.72
2022-08-28T01:22:38.998Z,7.00
2022-08-28T01:25:13.238Z,8.52
2022-08-28T01:27:45.473Z,7.65
2022-08-28T01:30:24.543Z,7.35
2022-08-28T01:32:57.845Z,6.38
2022-08-28T01:35:29.967Z,8.82
2022-08-28T01:38:04.682Z,5.80
2022-08-28T01:40:38.026Z,7.18
2022-08-28T01:43:14.596Z,5.15
2022-08-28T01:45:48.547Z,7.78
2022-08-28T01:48:18.864Z,6.57
2022-08-28T01:50:45.691Z,6.35
2022-08-28T01:53:15.210Z,6.40
2022-08-28T01:55:45.483Z,6.00
2022-08-28T01:58:12.780Z,6.43
2022-08-28T02:00:43.137Z,9.02
2022-08-28T02:03:17.999Z,6.82
2022-08-28T02:05:46.801Z,8.00
2022-08-28T02:08:19.887Z,8.30
2022-08-28T02:10:47.133Z,6.65
2022-08-28T02:13:16.644Z,10.20
2022-08-28T02:15:44.220Z,6.90
2022-08-28T02:18:14.552Z,8.55
2022-08-28T02:20:42.930Z,8.55
2022-08-28T02:23:12.461Z,8.75
2022-08-28T02:25:39.532Z,7.60
2022-08-28T02:28:12.798Z,6.93
2022-08-28T02:30:42.022Z,7.10
2022-08-28T02:33:08.693Z,8.27
2022-08-28T02:35:38.016Z,6.68
2022-08-28T02:38:07.037Z,8.25
2022-08-28T02:40:37.067Z,7.55
2022-08-28T02:43:16.244Z,8.40
2022-08-28T02:45:45.729Z,6.88
2022-08-28T02:48:17.640Z,9.40
2022-08-28T02:50:46.188Z,6.22
2022-08-28T02:53:16.903Z,6.50
2022-08-28T02:55:44.828Z,8.77
2022-08-28T02:58:11.487Z,7.93
2022-08-28T03:00:38.102Z,7.82
2022-08-28T03:03:05.281Z,6.43
2022-08-28T03:05:31.769Z,10.35
2022-08-28T03:07:59.492Z,7.40
2022-08-28T03:10:28.483Z,7.53
2022-08-28T03:12:55.011Z,7.53
2022-08-28T03:15:21.763Z,6.95
2022-08-28T03:17:50.844Z,8.57
2022-08-28T03:20:27.342Z,6.50
2022-08-28T03:23:12.267Z,6.63
2022-08-28T03:25:40.966Z,5.80
2022-08-28T03:28:07.422Z,7.35
2022-08-28T03:30:35.980Z,9.07
2022-08-28T03:33:09.865Z,8.27
2022-08-28T03:35:37.574Z,8.45
2022-08-28T03:38:05.034Z,9.00
2022-08-28T03:40:33.832Z,6.13
2022-08-28T03:43:12.630Z,5.93
2022-08-28T03:45:43.107Z,5.85
2022-08-28T03:48:14.214Z,6.78
2022-08-28T03:50:45.386Z,8.07
2022-08-28T03:53:15.564Z,8.32
2022-08-28T03:55:48.980Z,4.70
2022-08-28T03:58:19.919Z,6.75
2022-08-28T04:03:21.021Z,7.38
2022-08-28T04:05:50.187Z,8.68
2022-08-28T04:08:33.322Z,8.05
2022-08-28T04:11:00.954Z,6.38
2022-08-28T04:13:45.488Z,7.32
2022-08-28T04:16:26.265Z,5.90
2022-08-28T04:19:07.964Z,7.82
2022-08-28T04:21:38.088Z,8.85
2022-08-28T04:24:17.775Z,5.68
2022-08-28T04:26:46.414Z,6.43
2022-08-28T04:29:18.002Z,7.10
2022-08-28T04:31:49.355Z,7.35
2022-08-28T04:34:18.866Z,9.32
2022-08-28T04:37:04.517Z,7.07
2022-08-28T04:39:59.530Z,6.57
2022-08-28T04:42:44.828Z,6.82
2022-08-28T04:45:26.035Z,5.68
2022-08-28T04:48:05.379Z,6.70
2022-08-28T04:50:43.565Z,8.95
2022-08-28T04:53:43.820Z,7.78
2022-08-28T04:56:17.588Z,8.05
2022-08-28T05:01:47.660Z,10.13
2022-08-28T05:04:33.766Z,5.18
2022-08-28T05:07:21.101Z,7.28
2022-08-28T05:10:00.654Z,9.27
2022-08-28T05:12:49.076Z,8.95
2022-08-28T05:18:07.764Z,6.43
2022-08-28T05:20:55.435Z,5.43
2022-08-28T05:23:54.796Z,9.27
2022-08-28T05:26:40.431Z,8.43
2022-08-28T05:29:35.934Z,6.90
2022-08-28T05:32:14.246Z,6.00
2022-08-28T05:34:46.747Z,6.72
2022-08-28T05:37:33.032Z,8.20
2022-08-28T05:40:05.948Z,8.30
2022-08-28T05:42:51.470Z,7.32
2022-08-28T05:45:32.640Z,6.60
2022-08-28T05:48:26.943Z,8.00
2022-08-28T05:51:40.554Z,8.10
2022-08-28T05:54:17.572Z,8.00
2022-08-28T05:56:51.614Z,5.95
2022-08-28T05:59:44.687Z,7.18
2022-08-28T06:02:54.762Z,8.70
2022-08-28T06:08:58.131Z,6.68
2022-08-28T06:11:24.601Z,7.50
2022-08-28T06:13:53.831Z,5.57
2022-08-28T06:17:23.445Z,9.60
2022-08-28T06:20:01.278Z,7.05
2022-08-28T06:22:51.705Z,10.27
2022-08-28T06:25:48.834Z,9.90
2022-08-28T06:28:43.922Z,5.07
2022-08-28T06:34:55.490Z,9.07
2022-08-28T06:38:28.808Z,8.95
2022-08-28T06:41:03.488Z,8.70
2022-08-28T06:43:36.297Z,9.55
2022-08-28T06:46:17.809Z,8.00
2022-08-28T06:48:57.004Z,10.32
2022-08-28T06:52:03.170Z,6.10
2022-08-28T06:54:34.256Z,10.38
2022-08-28T07:04:00.508Z,8.90
2022-08-28T07:06:53.858Z,7.85
2022-08-28T07:10:04.001Z,8.75
2022-08-28T07:16:21.612Z,6.22
2022-08-28T07:19:14.018Z,6.82
2022-08-28T07:22:13.105Z,6.20
2022-08-28T07:24:56.029Z,5.38
2022-08-28T07:27:54.837Z,9.15
2022-08-28T07:31:01.642Z,6.50
2022-08-28T07:36:58.602Z,6.03
2022-08-28T07:39:45.881Z,6.45
2022-08-28T07:42:40.318Z,5.78
2022-08-28T07:45:07.077Z,9.70
2022-08-28T07:47:33.576Z,10.50
2022-08-28T07:50:01.420Z,6.72
2022-08-28T07:52:28.155Z,6.57
2022-08-28T07:54:55.349Z,6.85
2022-08-28T07:57:22.906Z,5.35
2022-08-28T07:59:50.022Z,6.35
2022-08-28T08:02:16.584Z,5.53
2022-08-28T08:04:42.972Z,7.70
2022-08-28T08:07:09.606Z,6.53
2022-08-28T08:09:38.101Z,6.20
2022-08-28T08:12:05.618Z,10.02
2022-08-28T08:14:32.263Z,5.47
2022-08-28T08:17:02.159Z,5.85
2022-08-28T08:19:28.583Z,5.88
2022-08-28T08:21:55.788Z,6.22
2022-08-28T08:24:25.836Z,5.57
2022-08-28T08:26:59.501Z,7.18
2022-08-28T08:29:28.451Z,5.28
2022-08-28T08:32:02.659Z,6.22
2022-08-28T08:34:29.089Z,7.65
2022-08-28T08:36:55.589Z,5.75
2022-08-28T08:39:22.051Z,4.68
2022-08-28T08:41:59.838Z,6.68
2022-08-28T08:44:36.181Z,4.55
2022-08-28T08:47:35.048Z,8.85
2022-08-28T08:50:17.873Z,4.93
2022-08-28T08:52:58.105Z,4.30
2022-08-28T08:55:50.268Z,5.30
2022-08-28T08:58:47.684Z,3.67
2022-08-28T09:01:52.024Z,5.30
2022-08-28T09:05:33.585Z,2.75
2022-08-28T09:12:06.813Z,4.20
2022-08-28T09:15:34.064Z,5.88
2022-08-28T09:20:02.541Z,6.13
2022-08-28T09:22:22.925Z,3.95
2022-08-28T09:25:15.500Z,5.07
2022-08-28T09:28:15.209Z,4.93
2022-08-28T09:37:33.331Z,6.32
2022-08-28T09:44:02.323Z,3.83
2022-08-28T09:56:31.166Z,4.82
2022-08-28T10:01:48.951Z,2.63
2022-08-28T10:07:54.904Z,2.90
2022-08-28T10:11:29.557Z,4.65
2022-08-28T10:14:38.314Z,3.92
2022-08-28T10:17:52.678Z,3.70
2022-08-28T10:24:54.616Z,3.20
2022-08-28T10:38:26.129Z,5.85
2022-08-28T10:42:19.293Z,4.22
2022-08-28T10:45:46.246Z,7.03
2022-08-28T10:49:24.701Z,4.70
2022-08-28T10:56:16.928Z,4.72
2022-08-28T11:03:35.662Z,4.68
2022-08-28T11:10:05.454Z,3.03
2022-08-28T11:13:48.220Z,4.43
2022-08-28T11:20:49.455Z,4.40
2022-08-28T11:25:56.712Z,2.90
2022-08-28T12:11:41.837Z,4.78
2022-08-28T13:45:20.667Z,3.38
2022-08-28T13:48:39.481Z,5.07
2022-08-28T13:52:15.490Z,3.83
2022-08-28T13:55:21.306Z,2.85
2022-08-28T13:58:15.243Z,5.50
2022-08-28T14:02:02.436Z,4.35
2022-08-28T14:08:45.643Z,3.30
2022-08-28T14:11:44.049Z,3.75
2022-08-28T14:14:40.195Z,3.72
2022-08-28T14:21:16.641Z,3.60
2022-08-28T14:27:30.933Z,4.05
2022-08-28T14:33:49.431Z,4.78
2022-08-28T14:40:14.373Z,3.00
2022-08-28T14:42:59.638Z,3.22
2022-08-28T14:56:45.123Z,4.15
2022-08-28T14:59:43.988Z,7.90
2022-08-28T15:23:22.005Z,3.78
2022-08-28T15:25:48.176Z,3.40
2022-08-28T15:40:34.629Z,5.40
2022-08-28T16:06:43.662Z,4.35
2022-08-28T16:33:14.171Z,2.83
2022-08-28T16:40:20.513Z,3.08
2022-08-28T17:36:42.554Z,4.32
2022-08-28T17:48:06.934Z,3.47
2022-08-28T17:53:35.267Z,4.50
2022-08-28T18:00:52.465Z,6.22
2022-08-28T18:05:14.137Z,2.50
2022-08-28T18:12:01.240Z,3.22
2022-08-28T18:19:20.043Z,3.70
2022-08-28T18:22:50.896Z,5.72
2022-08-28T18:30:37.930Z,5.13
2022-08-28T18:41:45.655Z,3.97
2022-08-28T18:43:48.751Z,3.45
2022-08-28T18:47:31.403Z,5.22
2022-08-28T18:50:18.038Z,4.07
2022-08-28T18:53:10.360Z,2.97
2022-08-28T18:55:39.653Z,3.92
2022-08-28T18:58:16.916Z,5.47
2022-08-28T19:01:03.428Z,4.15
2022-08-28T19:03:30.606Z,4.32
2022-08-28T19:06:22.647Z,4.88
2022-08-28T19:08:59.581Z,3.72
2022-08-28T19:18:40.329Z,5.00
2022-08-28T19:21:37.665Z,4.32
2022-08-28T19:37:24.769Z,4.40
2022-08-28T19:40:48.872Z,3.95
2022-08-28T19:43:53.802Z,4.47
2022-08-28T19:50:08.155Z,3.72
2022-08-28T19:53:29.670Z,4.60
2022-08-28T19:56:02.973Z,5.63
2022-08-28T19:59:18.657Z,4.72
2022-08-28T20:02:43.191Z,4.90
2022-08-28T20:23:56.962Z,3.83
2022-08-28T20:36:28.382Z,6.53
2022-08-28T20:39:21.143Z,4.25
2022-08-28T20:45:34.082Z,4.65
2022-08-28T20:52:23.828Z,4.25
2022-08-28T20:55:33.987Z,4.70
2022-08-28T20:59:11.275Z,4.22
2022-08-28T21:01:59.872Z,4.88
2022-08-28T21:05:57.890Z,5.60
2022-08-28T21:11:57.641Z,3.78
2022-08-28T21:24:23.786Z,5.45
2022-08-28T21:27:12.864Z,5.18
2022-08-28T21:29:41.630Z,4.45
2022-08-28T21:32:33.832Z,6.20
2022-08-28T21:35:16.990Z,4.28
2022-08-28T21:37:46.694Z,3.80
2022-08-28T21:40:35.278Z,3.40
2022-08-28T21:43:07.033Z,5.47
2022-08-28T21:45:45.469Z,4.05
2022-08-28T21:48:17.660Z,5.70
2022-08-28T21:50:54.257Z,5.15
2022-08-28T21:53:27.220Z,5.70
2022-08-28T21:56:04.882Z,3.80
2022-08-28T21:58:36.062Z,4.22
2022-08-28T22:01:35.221Z,6.30
2022-08-28T22:04:26.749Z,6.68
2022-08-28T22:06:57.211Z,4.55
2022-08-28T22:09:31.403Z,5.25
2022-08-28T22:15:48.630Z,6.07
2022-08-28T22:18:33.986Z,5.38
2022-08-28T22:21:30.016Z,4.43
2022-08-28T22:24:15.590Z,5.30
2022-08-28T22:26:57.456Z,6.68
2022-08-28T22:29:42.027Z,3.03
2022-08-28T22:32:13.731Z,3.90
2022-08-28T22:34:49.379Z,4.40
2022-08-28T22:37:32.850Z,3.72
2022-08-28T22:40:17.059Z,4.65
2022-08-28T22:42:43.978Z,5.25
2022-08-28T22:45:21.469Z,6.70
2022-08-28T22:47:55.018Z,4.47
2022-08-28T22:50:38.371Z,4.28
2022-08-28T22:53:20.802Z,4.50
2022-08-28T22:55:57.721Z,4.13
2022-08-28T22:58:33.004Z,5.88
2022-08-28T23:01:08.252Z,5.43
2022-08-28T23:04:03.313Z,4.30
2022-08-28T23:06:34.950Z,3.35
2022-08-28T23:09:06.415Z,5.38
2022-08-28T23:11:42.186Z,4.78
2022-08-28T23:14:11.026Z,4.63
2022-08-28T23:16:52.484Z,6.30
2022-08-28T23:19:28.576Z,3.95
2022-08-28T23:21:59.870Z,5.25
2022-08-28T23:24:38.117Z,3.53
2022-08-28T23:27:35.483Z,4.22
2022-08-28T23:30:06.848Z,5.25
2022-08-28T23:32:41.300Z,3.67
2022-08-28T23:35:30.462Z,6.90
2022-08-28T23:37:59.609Z,7.60
2022-08-28T23:40:28.774Z,5.95
2022-08-28T23:42:59.256Z,6.78
2022-08-28T23:45:30.656Z,4.38
2022-08-28T23:48:11.074Z,3.67
2022-08-28T23:50:42.308Z,4.53
2022-08-28T23:53:12.121Z,4.00
2022-08-28T23:55:50.871Z,3.60
2022-08-28T23:58:20.629Z,4.25
